createdAt,value
2019-03-05T00:00:33.665Z,6.28
2019-03-05T00:01:39.699Z,6.13
2019-03-05T00:02:45.287Z,6.15
2019-03-05T00:03:51.110Z,6.26
2019-03-05T00:04:56.742Z,6.25
2019-03-05T00:06:02.384Z,6.21
2019-03-05T00:07:08.231Z,6.18
2019-03-05T00:08:13.787Z,6.08
2019-03-05T00:09:19.076Z,6.07
2019-03-05T00:10:24.617Z,5.97
2019-03-05T00:11:30.452Z,6.17
2019-03-05T00:12:36.301Z,6.13
2019-03-05T00:13:41.823Z,6.20
2019-03-05T00:14:47.756Z,6.21
2019-03-05T00:15:53.401Z,6.23
2019-03-05T00:16:59.231Z,6.17
2019-03-05T00:18:04.377Z,6.24
2019-03-05T00:19:10.338Z,6.28
2019-03-05T00:20:16.165Z,6.28
2019-03-05T00:21:22.007Z,6.22
2019-03-05T00:22:27.866Z,6.31
2019-03-05T00:23:44.713Z,6.29
2019-03-05T00:24:57.393Z,6.34
2019-03-05T00:26:03.273Z,6.32
2019-03-05T00:27:08.818Z,6.30
2019-03-05T00:28:15.744Z,6.22
2019-03-05T00:29:24.460Z,6.29
2019-03-05T00:30:31.569Z,6.28
2019-03-05T00:31:39.002Z,6.23
2019-03-05T00:32:44.204Z,6.22
2019-03-05T00:33:50.296Z,6.26
2019-03-05T00:34:59.961Z,6.34
2019-03-05T00:36:11.536Z,6.17
2019-03-05T00:37:21.481Z,6.22
2019-03-05T00:38:30.145Z,6.29
2019-03-05T00:39:52.146Z,6.38
2019-03-05T00:42:38.951Z,6.30
2019-03-05T00:43:54.748Z,6.32
2019-03-05T00:45:17.605Z,6.32
2019-03-05T00:46:23.637Z,6.33
2019-03-05T00:47:44.408Z,6.34
2019-03-05T00:49:00.861Z,6.38
2019-03-05T00:50:15.723Z,6.33
2019-03-05T00:51:26.294Z,6.29
2019-03-05T00:52:37.884Z,6.34
2019-03-05T00:53:46.563Z,6.34
2019-03-05T00:55:07.293Z,6.37
2019-03-05T00:56:18.770Z,6.38
2019-03-05T00:57:28.425Z,6.34
2019-03-05T00:58:42.418Z,6.31
2019-03-05T00:59:54.336Z,6.38
2019-03-05T01:01:03.106Z,6.48
2019-03-05T01:02:27.754Z,6.43
2019-03-05T01:03:34.743Z,6.35
2019-03-05T01:04:41.185Z,6.29
2019-03-05T01:05:47.142Z,6.43
2019-03-05T01:06:52.607Z,6.47
2019-03-05T01:07:57.788Z,6.53
2019-03-05T01:09:03.310Z,6.51
2019-03-05T01:10:08.289Z,6.56
2019-03-05T01:11:13.914Z,6.67
2019-03-05T01:12:19.207Z,6.59
2019-03-05T01:13:24.394Z,6.60
2019-03-05T01:14:29.745Z,6.70
2019-03-05T01:15:35.266Z,6.77
2019-03-05T01:16:40.556Z,6.59
2019-03-05T01:17:46.087Z,6.57
2019-03-05T01:18:51.909Z,6.59
2019-03-05T01:19:57.797Z,6.73
2019-03-05T01:21:03.001Z,6.73
2019-03-05T01:22:08.284Z,6.77
2019-03-05T01:23:14.134Z,6.76
2019-03-05T01:24:19.293Z,6.66
2019-03-05T01:25:29.943Z,6.68
2019-03-05T01:26:35.528Z,6.58
2019-03-05T01:27:41.376Z,6.68
2019-03-05T01:28:46.891Z,6.78
2019-03-05T01:29:52.423Z,6.77
2019-03-05T01:31:08.888Z,6.76
2019-03-05T01:33:49.511Z,6.68
2019-03-05T01:34:56.733Z,6.79
2019-03-05T01:36:04.117Z,6.82
2019-03-05T01:37:09.781Z,6.79
2019-03-05T01:38:15.661Z,6.88
2019-03-05T01:39:23.813Z,6.87
2019-03-05T01:40:29.123Z,6.92
2019-03-05T01:41:34.996Z,6.81
2019-03-05T01:42:40.563Z,6.94
2019-03-05T01:43:46.388Z,6.96
2019-03-05T01:44:52.305Z,6.87
2019-03-05T01:45:58.208Z,6.89
2019-03-05T01:47:03.702Z,6.96
2019-03-05T01:48:09.554Z,6.95
2019-03-05T01:49:15.443Z,6.97
2019-03-05T01:50:21.339Z,7.07
2019-03-05T01:51:27.253Z,7.17
2019-03-05T01:52:33.087Z,7.11
2019-03-05T01:53:38.901Z,7.01
2019-03-05T01:54:44.723Z,6.97
2019-03-05T01:55:50.645Z,6.94
2019-03-05T01:56:56.482Z,7.08
2019-03-05T01:58:02.365Z,7.02
2019-03-05T01:59:08.220Z,7.09
2019-03-05T02:00:13.182Z,6.98
2019-03-05T02:01:18.994Z,7.02
2019-03-05T02:02:24.837Z,7.12
2019-03-05T02:03:29.968Z,7.07
2019-03-05T02:04:35.483Z,6.98
2019-03-05T02:05:41.387Z,6.90
2019-03-05T02:06:47.064Z,6.84
2019-03-05T02:07:52.556Z,6.90
2019-03-05T02:08:58.038Z,6.96
2019-03-05T02:10:02.997Z,6.97
2019-03-05T02:11:08.660Z,6.88
2019-03-05T02:12:14.260Z,6.96
2019-03-05T02:13:19.756Z,7.00
2019-03-05T02:14:25.295Z,6.94
2019-03-05T02:15:31.175Z,6.78
2019-03-05T02:16:36.997Z,6.73
2019-03-05T02:17:42.913Z,6.68
2019-03-05T02:18:48.420Z,6.62
2019-03-05T02:19:54.289Z,6.74
2019-03-05T02:21:00.159Z,6.73
2019-03-05T02:22:15.138Z,6.79
2019-03-05T02:23:20.269Z,6.73
2019-03-05T02:24:47.109Z,6.78
2019-03-05T02:25:57.986Z,6.73
2019-03-05T02:27:09.660Z,6.75
2019-03-05T02:28:30.602Z,6.79
2019-03-05T02:29:38.197Z,6.76
2019-03-05T02:32:41.066Z,6.68
2019-03-05T02:34:01.147Z,6.62
2019-03-05T02:35:07.829Z,6.71
2019-03-05T02:36:15.374Z,6.62
2019-03-05T02:37:21.247Z,6.55
2019-03-05T02:40:16.338Z,6.62
2019-03-05T02:41:29.549Z,6.61
2019-03-05T02:42:47.222Z,6.66
2019-03-05T02:44:01.877Z,6.71
2019-03-05T02:45:31.735Z,6.68
2019-03-05T02:46:42.098Z,6.51
2019-03-05T02:49:37.959Z,6.57
2019-03-05T02:50:46.943Z,6.52
2019-03-05T02:51:59.967Z,6.54
2019-03-05T02:53:08.574Z,6.50
2019-03-05T02:57:44.465Z,6.53
2019-03-05T02:58:49.110Z,6.61
2019-03-05T02:59:54.950Z,6.55
2019-03-05T03:01:12.364Z,6.62
2019-03-05T03:02:19.849Z,6.73
2019-03-05T03:03:28.385Z,6.67
2019-03-05T03:04:35.460Z,6.68
2019-03-05T03:05:41.580Z,6.63
2019-03-05T03:06:47.110Z,6.58
2019-03-05T03:07:52.984Z,6.62
2019-03-05T03:09:20.721Z,6.65
2019-03-05T03:10:25.919Z,6.60
2019-03-05T03:11:31.784Z,6.48
2019-03-05T03:12:37.281Z,6.55
2019-03-05T03:13:43.205Z,6.61
2019-03-05T03:14:48.400Z,6.60
2019-03-05T03:15:54.265Z,6.55
2019-03-05T03:17:00.105Z,6.56
2019-03-05T03:18:05.989Z,6.39
2019-03-05T03:19:11.890Z,6.43
2019-03-05T03:20:17.050Z,6.35
2019-03-05T03:21:23.082Z,6.49
2019-03-05T03:22:28.973Z,6.57
2019-03-05T03:23:34.845Z,6.54
2019-03-05T03:24:40.745Z,6.34
2019-03-05T03:25:46.566Z,6.48
2019-03-05T03:26:52.392Z,6.52
2019-03-05T03:27:58.277Z,6.50
2019-03-05T03:29:03.775Z,6.50
2019-03-05T03:30:09.717Z,6.43
2019-03-05T03:31:15.561Z,6.48
2019-03-05T03:32:21.413Z,6.49
2019-03-05T03:33:27.318Z,6.45
2019-03-05T03:34:33.229Z,6.54
2019-03-05T03:35:39.087Z,6.60
2019-03-05T03:36:44.926Z,6.50
2019-03-05T03:37:50.421Z,6.51
2019-03-05T03:38:56.309Z,6.51
2019-03-05T03:40:02.217Z,6.58
2019-03-05T03:41:08.124Z,6.51
2019-03-05T03:42:13.968Z,6.55
2019-03-05T03:43:19.448Z,6.53
2019-03-05T03:44:25.316Z,6.54
2019-03-05T03:45:31.218Z,6.49
2019-03-05T03:46:37.067Z,6.39
2019-03-05T03:47:42.947Z,6.33
2019-03-05T03:48:48.826Z,6.31
2019-03-05T03:49:54.751Z,6.44
2019-03-05T03:51:00.597Z,6.51
2019-03-05T03:52:06.468Z,6.50
2019-03-05T03:53:12.339Z,6.53
2019-03-05T03:54:18.191Z,6.51
2019-03-05T03:55:23.403Z,6.48
2019-03-05T03:56:29.314Z,6.36
2019-03-05T03:57:34.987Z,6.38
2019-03-05T03:58:40.561Z,6.43
2019-03-05T03:59:46.113Z,6.45
2019-03-05T04:00:51.961Z,6.29
2019-03-05T04:01:57.450Z,6.20
2019-03-05T04:03:03.334Z,6.31
2019-03-05T04:04:09.178Z,6.44
2019-03-05T04:05:14.676Z,6.29
2019-03-05T04:06:19.845Z,6.30
2019-03-05T04:07:25.680Z,6.36
2019-03-05T04:08:31.581Z,6.28
2019-03-05T04:09:37.969Z,6.33
2019-03-05T04:10:43.859Z,6.33
2019-03-05T04:11:49.722Z,6.22
2019-03-05T04:12:55.673Z,6.23
2019-03-05T04:14:01.547Z,6.41
2019-03-05T04:15:06.750Z,6.38
2019-03-05T04:16:12.287Z,6.41
2019-03-05T04:17:18.131Z,6.34
2019-03-05T04:18:23.956Z,6.40
2019-03-05T04:19:29.594Z,6.50
2019-03-05T04:20:35.370Z,6.40
2019-03-05T04:21:41.130Z,6.42
2019-03-05T04:22:47.028Z,6.46
2019-03-05T04:23:52.913Z,6.53
2019-03-05T04:24:59.046Z,6.42
2019-03-05T04:26:04.910Z,6.38
2019-03-05T04:27:10.749Z,6.42
2019-03-05T04:28:16.575Z,6.49
2019-03-05T04:29:22.421Z,6.46
2019-03-05T04:30:28.360Z,6.49
2019-03-05T04:31:34.002Z,6.42
2019-03-05T04:32:39.871Z,6.45
2019-03-05T04:33:45.728Z,6.55
2019-03-05T04:34:51.596Z,6.65
2019-03-05T04:35:57.497Z,6.49
2019-03-05T04:37:03.348Z,6.56
2019-03-05T04:38:09.174Z,6.55
2019-03-05T04:39:15.015Z,6.46
2019-03-05T04:40:20.915Z,6.50
2019-03-05T04:41:26.767Z,6.56
2019-03-05T04:42:33.535Z,6.39
2019-03-05T04:43:39.402Z,6.38
2019-03-05T04:44:44.985Z,6.52
2019-03-05T04:45:51.436Z,6.49
2019-03-05T04:46:57.259Z,6.34
2019-03-05T04:48:02.770Z,6.41
2019-03-05T04:49:12.346Z,6.37
2019-03-05T04:50:18.811Z,6.34
2019-03-05T04:51:24.489Z,6.43
2019-03-05T04:52:30.381Z,6.55
2019-03-05T04:53:36.236Z,6.32
2019-03-05T04:54:42.123Z,6.38
2019-03-05T04:55:48.021Z,6.44
2019-03-05T04:56:53.887Z,6.26
2019-03-05T04:57:59.754Z,6.26
2019-03-05T04:59:05.619Z,6.30
2019-03-05T05:00:10.755Z,6.36
2019-03-05T05:01:16.719Z,6.33
2019-03-05T05:02:22.567Z,6.20
2019-03-05T05:03:28.040Z,6.28
2019-03-05T05:04:33.883Z,6.15
2019-03-05T05:05:39.773Z,6.21
2019-03-05T05:06:45.632Z,6.09
2019-03-05T05:07:51.482Z,5.97
2019-03-05T05:08:57.365Z,6.15
2019-03-05T05:10:03.244Z,6.18
2019-03-05T05:11:09.160Z,6.07
2019-03-05T05:12:15.023Z,6.06
2019-03-05T05:13:20.867Z,6.00
2019-03-05T05:14:26.802Z,6.01
2019-03-05T05:15:33.350Z,5.99
2019-03-05T05:16:39.263Z,6.04
2019-03-05T05:17:45.161Z,5.98
2019-03-05T05:18:51.845Z,6.00
2019-03-05T05:19:57.720Z,5.98
2019-03-05T05:21:03.595Z,6.04
2019-03-05T05:22:09.492Z,6.06
2019-03-05T05:23:15.437Z,6.09
2019-03-05T05:24:20.941Z,6.18
2019-03-05T05:25:26.078Z,6.11
2019-03-05T05:26:31.935Z,6.14
2019-03-05T05:27:37.804Z,6.16
2019-03-05T05:28:44.525Z,6.06
2019-03-05T05:29:50.349Z,6.08
2019-03-05T05:30:55.904Z,6.13
2019-03-05T05:32:01.738Z,6.14
2019-03-05T05:33:06.965Z,6.15
2019-03-05T05:34:12.835Z,6.17
2019-03-05T05:35:18.752Z,6.18
2019-03-05T05:36:24.665Z,6.12
2019-03-05T05:37:30.491Z,6.11
2019-03-05T05:38:36.324Z,6.13
2019-03-05T05:39:53.299Z,6.18
2019-03-05T05:40:59.237Z,6.17
2019-03-05T05:42:04.804Z,6.03
2019-03-05T05:43:10.729Z,6.07
2019-03-05T05:44:16.646Z,6.04
2019-03-05T05:45:23.087Z,6.10
2019-03-05T05:46:28.968Z,6.18
2019-03-05T05:47:34.867Z,6.17
2019-03-05T05:48:40.732Z,6.24
2019-03-05T05:49:46.577Z,6.06
2019-03-05T05:50:52.452Z,6.08
2019-03-05T05:51:58.336Z,6.11
2019-03-05T05:53:03.839Z,6.14
2019-03-05T05:54:09.724Z,6.07
2019-03-05T05:55:15.214Z,6.17
2019-03-05T05:56:21.137Z,6.19
2019-03-05T05:57:27.004Z,6.09
2019-03-05T05:58:32.877Z,6.12
2019-03-05T05:59:38.721Z,6.14
2019-03-05T06:00:43.978Z,6.03
2019-03-05T06:01:49.831Z,5.93
2019-03-05T06:02:55.691Z,5.76
2019-03-05T06:04:01.527Z,5.74
2019-03-05T06:05:06.732Z,5.81
2019-03-05T06:06:12.613Z,5.80
2019-03-05T06:07:20.957Z,5.75
2019-03-05T06:08:26.814Z,5.83
2019-03-05T06:09:32.676Z,5.83
2019-03-05T06:10:38.553Z,5.85
2019-03-05T06:11:44.458Z,5.86
2019-03-05T06:12:50.290Z,5.86
2019-03-05T06:13:56.123Z,5.93
2019-03-05T06:15:01.960Z,5.98
2019-03-05T06:16:08.689Z,5.96
2019-03-05T06:17:14.582Z,6.00
2019-03-05T06:18:20.416Z,5.97
2019-03-05T06:19:26.332Z,5.89
2019-03-05T06:20:32.258Z,5.89
2019-03-05T06:21:38.093Z,5.97
2019-03-05T06:22:44.005Z,5.97
2019-03-05T06:23:49.857Z,6.03
2019-03-05T06:24:55.712Z,5.97
2019-03-05T06:26:01.554Z,5.99
2019-03-05T06:27:07.441Z,5.97
2019-03-05T06:28:13.297Z,5.87
2019-03-05T06:29:19.150Z,5.89
2019-03-05T06:30:24.330Z,5.96
2019-03-05T06:31:30.194Z,6.03
2019-03-05T06:32:36.104Z,5.89
2019-03-05T06:33:41.977Z,5.91
2019-03-05T06:34:47.821Z,6.02
2019-03-05T06:35:53.656Z,6.13
2019-03-05T06:36:59.614Z,6.11
2019-03-05T06:38:04.800Z,6.10
2019-03-05T06:39:10.660Z,6.08
2019-03-05T06:40:16.672Z,6.05
2019-03-05T06:41:22.533Z,6.03
2019-03-05T06:42:28.817Z,5.99
2019-03-05T06:43:34.693Z,6.04
2019-03-05T06:44:40.544Z,6.04
2019-03-05T06:45:46.394Z,6.13
2019-03-05T06:46:51.909Z,6.15
2019-03-05T06:47:57.817Z,6.18
2019-03-05T06:49:03.681Z,6.11
2019-03-05T06:50:08.981Z,6.20
2019-03-05T06:51:14.976Z,6.12
2019-03-05T06:52:20.885Z,6.09
2019-03-05T06:53:26.808Z,6.10
2019-03-05T06:54:32.634Z,6.07
2019-03-05T06:55:38.546Z,6.08
2019-03-05T06:56:44.422Z,6.12
2019-03-05T06:57:49.953Z,6.07
2019-03-05T06:58:55.845Z,6.02
2019-03-05T07:00:01.745Z,6.13
2019-03-05T07:01:07.791Z,6.07
2019-03-05T07:02:13.289Z,5.97
2019-03-05T07:03:19.172Z,5.90
2019-03-05T07:04:25.070Z,5.98
2019-03-05T07:05:41.956Z,6.02
2019-03-05T07:06:47.827Z,5.97
2019-03-05T07:07:53.737Z,5.91
2019-03-05T07:09:00.479Z,6.00
2019-03-05T07:10:08.327Z,5.91
2019-03-05T07:11:20.226Z,5.93
2019-03-05T07:12:26.876Z,5.90
2019-03-05T07:13:32.011Z,5.82
2019-03-05T07:14:42.608Z,5.75
2019-03-05T07:16:04.411Z,5.87
2019-03-05T07:18:41.211Z,5.99
2019-03-05T07:19:57.846Z,5.82
2019-03-05T07:22:39.445Z,5.97
2019-03-05T07:25:20.923Z,5.93
2019-03-05T07:26:26.771Z,5.90
2019-03-05T07:27:31.950Z,5.98
2019-03-05T07:28:37.823Z,5.98
2019-03-05T07:29:43.722Z,6.10
2019-03-05T07:30:49.605Z,6.06
2019-03-05T07:31:55.459Z,6.13
2019-03-05T07:33:01.358Z,6.27
2019-03-05T07:34:06.649Z,6.22
2019-03-05T07:35:14.454Z,6.17
2019-03-05T07:36:20.020Z,6.22
2019-03-05T07:37:25.895Z,6.25
2019-03-05T07:38:31.431Z,6.40
2019-03-05T07:39:37.308Z,6.47
2019-03-05T07:40:43.149Z,6.59
2019-03-05T07:41:48.995Z,6.58
2019-03-05T07:42:55.130Z,6.58
2019-03-05T07:44:01.605Z,6.61
2019-03-05T07:45:06.737Z,6.71
2019-03-05T07:46:12.629Z,6.73
2019-03-05T07:47:18.562Z,6.75
2019-03-05T07:48:24.463Z,6.85
2019-03-05T07:49:30.340Z,6.86
2019-03-05T07:50:36.203Z,6.73
2019-03-05T07:51:42.051Z,6.82
2019-03-05T07:52:47.941Z,6.93
2019-03-05T07:53:53.820Z,6.96
2019-03-05T07:54:59.682Z,6.88
2019-03-05T07:56:04.873Z,6.79
2019-03-05T07:57:10.736Z,6.84
2019-03-05T07:58:16.247Z,6.92
2019-03-05T07:59:22.117Z,6.87
2019-03-05T08:00:28.003Z,6.97
2019-03-05T08:01:33.906Z,6.97
2019-03-05T08:02:39.821Z,7.03
2019-03-05T08:03:45.645Z,7.15
2019-03-05T08:04:51.514Z,6.96
2019-03-05T08:05:56.671Z,7.02
2019-03-05T08:07:02.559Z,6.93
2019-03-05T08:08:26.640Z,6.92
2019-03-05T08:09:31.495Z,7.08
2019-03-05T08:10:37.357Z,7.10
2019-03-05T08:11:43.197Z,7.01
2019-03-05T08:14:42.876Z,6.98
2019-03-05T08:16:06.872Z,6.97
2019-03-05T08:17:12.740Z,7.12
2019-03-05T08:18:18.596Z,6.99
2019-03-05T08:19:24.485Z,7.02
2019-03-05T08:20:29.652Z,7.07
2019-03-05T08:21:35.168Z,7.15
2019-03-05T08:22:40.411Z,7.14
2019-03-05T08:23:48.369Z,7.14
2019-03-05T08:24:51.857Z,7.19
2019-03-05T08:25:57.749Z,7.21
2019-03-05T08:27:03.615Z,7.12
2019-03-05T08:28:09.140Z,7.07
2019-03-05T08:29:15.058Z,7.10
2019-03-05T08:30:20.561Z,7.13
2019-03-05T08:31:26.433Z,7.19
2019-03-05T08:32:32.325Z,7.30
2019-03-05T08:33:38.175Z,7.27
2019-03-05T08:34:43.661Z,7.06
2019-03-05T08:35:49.535Z,7.04
2019-03-05T08:36:55.431Z,6.89
2019-03-05T08:38:01.329Z,6.97
2019-03-05T08:39:06.501Z,6.96
2019-03-05T08:40:11.690Z,7.05
2019-03-05T08:41:17.226Z,7.09
2019-03-05T08:42:23.067Z,7.07
2019-03-05T08:43:29.033Z,7.11
2019-03-05T08:44:34.906Z,7.06
2019-03-05T08:45:40.759Z,7.17
2019-03-05T08:46:46.627Z,7.19
2019-03-05T08:47:52.497Z,7.27
2019-03-05T08:48:58.330Z,7.31
2019-03-05T08:50:03.520Z,7.18
2019-03-05T08:51:09.377Z,7.23
2019-03-05T08:52:15.275Z,7.30
2019-03-05T08:53:21.144Z,7.28
2019-03-05T08:54:27.050Z,7.09
2019-03-05T08:55:32.877Z,6.88
2019-03-05T08:56:38.409Z,6.77
2019-03-05T08:57:44.245Z,6.80
2019-03-05T08:58:50.151Z,7.03
2019-03-05T08:59:56.000Z,6.90
2019-03-05T09:01:01.856Z,7.06
2019-03-05T09:02:06.983Z,7.21
2019-03-05T09:03:12.890Z,7.23
2019-03-05T09:04:18.712Z,7.35
2019-03-05T09:05:24.606Z,7.23
2019-03-05T09:06:30.466Z,7.23
2019-03-05T09:07:36.361Z,7.36
2019-03-05T09:08:42.243Z,7.49
2019-03-05T09:09:47.769Z,7.46
2019-03-05T09:10:52.947Z,7.54
2019-03-05T09:11:58.580Z,7.72
2019-03-05T09:13:03.792Z,7.78
2019-03-05T09:14:08.945Z,7.99
2019-03-05T09:15:14.858Z,7.86
2019-03-05T09:16:20.712Z,7.96
2019-03-05T09:17:26.583Z,8.05
2019-03-05T09:18:32.472Z,7.89
2019-03-05T09:19:38.326Z,8.08
2019-03-05T09:20:43.867Z,8.10
2019-03-05T09:21:49.744Z,8.20
2019-03-05T09:22:55.234Z,8.40
2019-03-05T09:24:01.145Z,8.50
2019-03-05T09:25:06.328Z,8.46
2019-03-05T09:26:12.202Z,8.45
2019-03-05T09:27:18.049Z,8.56
2019-03-05T09:28:23.232Z,8.58
2019-03-05T09:29:29.132Z,8.55
2019-03-05T09:30:34.996Z,8.63
2019-03-05T09:31:40.877Z,8.50
2019-03-05T09:32:46.405Z,8.42
2019-03-05T09:33:52.337Z,8.22
2019-03-05T09:34:58.199Z,8.09
2019-03-05T09:36:04.085Z,8.06
2019-03-05T09:37:09.940Z,7.86
2019-03-05T09:38:15.461Z,7.84
2019-03-05T09:39:21.295Z,7.77
2019-03-05T09:40:27.333Z,7.85
2019-03-05T09:41:33.212Z,7.71
2019-03-05T09:42:40.153Z,7.65
2019-03-05T09:43:44.628Z,7.59
2019-03-05T09:44:50.499Z,7.60
2019-03-05T09:45:56.376Z,7.44
2019-03-05T09:47:02.231Z,7.38
2019-03-05T09:48:07.731Z,7.55
2019-03-05T09:49:13.678Z,7.61
2019-03-05T09:50:18.845Z,7.57
2019-03-05T09:51:24.381Z,7.53
2019-03-05T09:52:30.232Z,7.74
2019-03-05T09:53:36.128Z,7.85
2019-03-05T09:54:42.013Z,7.92
2019-03-05T09:55:47.881Z,7.99
2019-03-05T09:56:53.784Z,8.05
2019-03-05T09:58:07.904Z,8.04
2019-03-05T09:59:04.667Z,8.14
2019-03-05T10:00:10.674Z,8.06
2019-03-05T10:01:16.275Z,7.99
2019-03-05T10:02:22.127Z,7.89
2019-03-05T10:03:27.984Z,8.02
2019-03-05T10:04:33.831Z,8.04
2019-03-05T10:05:39.698Z,8.01
2019-03-05T10:06:45.549Z,8.17
2019-03-05T10:07:50.736Z,8.17
2019-03-05T10:08:56.659Z,8.18
2019-03-05T10:10:02.505Z,8.24
2019-03-05T10:11:08.062Z,8.30
2019-03-05T10:12:13.645Z,8.17
2019-03-05T10:13:19.559Z,8.10
2019-03-05T10:14:25.434Z,8.18
2019-03-05T10:15:31.316Z,8.13
2019-03-05T10:16:37.156Z,8.27
2019-03-05T10:17:43.083Z,8.27
2019-03-05T10:18:48.954Z,8.28
2019-03-05T10:19:54.816Z,8.28
2019-03-05T10:21:00.473Z,8.41
2019-03-05T10:22:05.993Z,8.33
2019-03-05T10:23:11.531Z,8.30
2019-03-05T10:24:17.420Z,8.36
2019-03-05T10:25:23.337Z,8.44
2019-03-05T10:26:29.215Z,8.45
2019-03-05T10:27:34.388Z,8.36
2019-03-05T10:28:39.897Z,8.36
2019-03-05T10:29:45.436Z,8.41
2019-03-05T10:30:50.574Z,8.38
2019-03-05T10:31:56.450Z,8.26
2019-03-05T10:33:18.112Z,8.33
2019-03-05T10:34:23.321Z,8.28
2019-03-05T10:35:28.522Z,8.27
2019-03-05T10:36:34.027Z,8.26
2019-03-05T10:37:39.522Z,8.14
2019-03-05T10:38:56.634Z,8.29
2019-03-05T10:39:50.993Z,8.19
2019-03-05T10:40:56.928Z,8.11
2019-03-05T10:42:02.184Z,8.12
2019-03-05T10:43:08.757Z,8.27
2019-03-05T10:44:13.294Z,8.16
2019-03-05T10:45:18.197Z,8.18
2019-03-05T10:46:23.837Z,8.18
2019-03-05T10:47:29.726Z,8.07
2019-03-05T10:48:35.593Z,7.91
2019-03-05T10:49:41.539Z,8.02
2019-03-05T10:50:46.755Z,7.84
2019-03-05T10:51:52.252Z,7.82
2019-03-05T10:52:57.452Z,7.72
2019-03-05T10:54:03.455Z,7.70
2019-03-05T10:55:08.654Z,7.75
2019-03-05T10:56:14.545Z,7.60
2019-03-05T10:57:20.383Z,7.59
2019-03-05T10:58:33.846Z,7.57
2019-03-05T10:59:31.473Z,7.56
2019-03-05T11:00:42.912Z,7.53
2019-03-05T11:01:48.070Z,7.45
2019-03-05T11:02:53.236Z,7.56
2019-03-05T11:03:58.448Z,7.45
2019-03-05T11:05:03.636Z,7.58
2019-03-05T11:06:09.312Z,7.58
2019-03-05T11:07:14.912Z,7.45
2019-03-05T11:08:20.319Z,7.54
2019-03-05T11:09:25.494Z,7.54
2019-03-05T11:10:30.407Z,7.60
2019-03-05T11:11:35.962Z,7.57
2019-03-05T11:12:41.095Z,7.54
2019-03-05T11:13:46.562Z,7.55
2019-03-05T11:14:52.455Z,7.59
2019-03-05T11:15:57.639Z,7.64
2019-03-05T11:17:02.888Z,7.71
2019-03-05T11:18:08.037Z,7.82
2019-03-05T11:19:13.554Z,7.97
2019-03-05T11:20:18.760Z,7.99
2019-03-05T11:21:24.617Z,7.96
2019-03-05T11:22:30.147Z,8.04
2019-03-05T11:23:35.635Z,7.83
2019-03-05T11:24:41.273Z,7.83
2019-03-05T11:25:46.485Z,7.82
2019-03-05T11:26:52.370Z,7.78
2019-03-05T11:27:58.257Z,7.68
2019-03-05T11:29:03.794Z,7.53
2019-03-05T11:30:22.934Z,7.55
2019-03-05T11:31:28.477Z,7.69
2019-03-05T11:32:34.345Z,7.68
2019-03-05T11:33:39.818Z,7.58
2019-03-05T11:34:45.742Z,7.68
2019-03-05T11:35:51.248Z,7.69
2019-03-05T11:36:57.158Z,7.60
2019-03-05T11:38:02.310Z,7.66
2019-03-05T11:39:07.467Z,7.53
2019-03-05T11:40:20.696Z,7.48
2019-03-05T11:41:18.217Z,7.51
2019-03-05T11:42:24.087Z,7.57
2019-03-05T11:43:29.997Z,7.50
2019-03-05T11:44:35.883Z,7.61
2019-03-05T11:45:41.064Z,7.50
2019-03-05T11:46:46.284Z,7.55
2019-03-05T11:47:51.482Z,7.60
2019-03-05T11:48:57.307Z,7.47
2019-03-05T11:50:02.511Z,7.34
2019-03-05T11:51:08.379Z,7.39
2019-03-05T11:52:13.865Z,7.49
2019-03-05T11:53:19.762Z,7.59
2019-03-05T11:54:25.656Z,7.74
2019-03-05T11:55:31.567Z,7.77
2019-03-05T11:56:37.492Z,7.57
2019-03-05T11:57:42.983Z,7.49
2019-03-05T11:58:48.843Z,7.59
2019-03-05T11:59:54.700Z,7.61
2019-03-05T12:01:05.941Z,7.54
2019-03-05T12:02:21.529Z,7.57
2019-03-05T12:03:17.060Z,7.54
2019-03-05T12:04:22.918Z,7.55
2019-03-05T12:05:28.489Z,7.54
2019-03-05T12:06:34.376Z,7.44
2019-03-05T12:07:40.215Z,7.37
2019-03-05T12:08:46.095Z,7.41
2019-03-05T12:09:51.992Z,7.32
2019-03-05T12:10:57.885Z,7.28
2019-03-05T12:12:03.422Z,7.35
2019-03-05T12:13:08.331Z,7.38
2019-03-05T12:14:14.193Z,7.42
2019-03-05T12:15:19.383Z,7.33
2019-03-05T12:16:24.959Z,7.38
2019-03-05T12:17:30.786Z,7.34
2019-03-05T12:18:36.686Z,7.49
2019-03-05T12:19:42.292Z,7.53
2019-03-05T12:20:47.835Z,7.59
2019-03-05T12:21:53.690Z,7.51
2019-03-05T12:23:02.181Z,7.58
2019-03-05T12:24:04.692Z,7.47
2019-03-05T12:25:10.778Z,7.52
2019-03-05T12:26:16.621Z,7.62
2019-03-05T12:27:22.491Z,7.64
2019-03-05T12:28:28.086Z,7.75
2019-03-05T12:29:33.947Z,7.68
2019-03-05T12:30:39.541Z,7.61
2019-03-05T12:31:45.426Z,7.67
2019-03-05T12:32:50.603Z,7.68
2019-03-05T12:33:56.479Z,7.73
2019-03-05T12:35:02.026Z,7.66
2019-03-05T12:36:07.211Z,7.65
2019-03-05T12:37:13.105Z,7.84
2019-03-05T12:38:19.016Z,7.91
2019-03-05T12:39:24.194Z,7.82
2019-03-05T12:40:30.139Z,7.85
2019-03-05T12:41:36.098Z,7.82
2019-03-05T12:42:41.960Z,8.04
2019-03-05T12:43:47.826Z,7.93
2019-03-05T12:44:53.726Z,7.90
2019-03-05T12:45:58.873Z,8.06
2019-03-05T12:47:04.033Z,8.06
2019-03-05T12:48:09.558Z,8.16
2019-03-05T12:49:17.125Z,8.30
2019-03-05T12:50:23.237Z,8.32
2019-03-05T12:51:29.077Z,8.32
2019-03-05T12:52:34.557Z,8.31
2019-03-05T12:53:40.570Z,8.30
2019-03-05T12:54:46.643Z,8.32
2019-03-05T12:55:52.567Z,8.33
2019-03-05T12:56:58.459Z,8.39
2019-03-05T12:58:03.818Z,8.34
2019-03-05T12:59:09.738Z,8.37
2019-03-05T13:00:15.513Z,8.48
2019-03-05T13:01:21.440Z,8.36
2019-03-05T13:02:27.508Z,8.42
2019-03-05T13:03:33.464Z,8.55
2019-03-05T13:04:39.483Z,8.78
2019-03-05T13:05:45.259Z,8.98
2019-03-05T13:06:51.151Z,9.19
2019-03-05T13:07:57.819Z,9.19
2019-03-05T13:09:02.878Z,8.98
2019-03-05T13:10:08.972Z,8.90
2019-03-05T13:11:15.003Z,9.12
2019-03-05T13:12:20.871Z,9.20
2019-03-05T13:13:26.434Z,9.21
2019-03-05T13:14:32.334Z,9.04
2019-03-05T13:15:38.045Z,9.03
2019-03-05T13:16:43.906Z,8.97
2019-03-05T13:17:51.593Z,8.78
2019-03-05T13:18:58.224Z,8.70
2019-03-05T13:20:01.804Z,8.58
2019-03-05T13:21:07.696Z,8.61
2019-03-05T13:22:13.194Z,8.74
2019-03-05T13:23:19.051Z,8.76
2019-03-05T13:24:24.929Z,9.01
2019-03-05T13:25:30.793Z,9.16
2019-03-05T13:26:36.729Z,9.07
2019-03-05T13:27:42.274Z,9.08
2019-03-05T13:28:48.142Z,9.49
2019-03-05T13:29:54.014Z,9.57
2019-03-05T13:31:00.470Z,9.60
2019-03-05T13:32:05.167Z,9.68
2019-03-05T13:33:11.036Z,9.36
2019-03-05T13:34:17.791Z,9.19
2019-03-05T13:35:25.389Z,9.06
2019-03-05T13:36:28.023Z,8.81
2019-03-05T13:37:33.890Z,8.76
2019-03-05T13:38:41.776Z,8.84
2019-03-05T13:39:45.785Z,9.03
2019-03-05T13:40:51.643Z,9.07
2019-03-05T13:41:56.934Z,9.04
2019-03-05T13:43:02.099Z,8.92
2019-03-05T13:44:07.317Z,8.88
2019-03-05T13:45:12.690Z,8.84
2019-03-05T13:46:18.234Z,8.87
2019-03-05T13:47:24.083Z,9.02
2019-03-05T13:48:43.579Z,8.98
2019-03-05T13:49:58.803Z,9.03
2019-03-05T13:52:41.268Z,9.05
2019-03-05T13:53:47.338Z,9.07
2019-03-05T13:54:57.162Z,9.10
2019-03-05T13:58:06.350Z,9.16
2019-03-05T13:59:23.137Z,9.12
2019-03-05T14:00:29.185Z,9.23
2019-03-05T14:01:35.123Z,9.30
2019-03-05T14:02:53.139Z,9.36
2019-03-05T14:03:58.248Z,9.43
2019-03-05T14:05:10.673Z,9.42
2019-03-05T14:06:21.953Z,9.48
2019-03-05T14:07:48.588Z,9.38
2019-03-05T14:09:12.580Z,9.13
2019-03-05T14:10:18.166Z,9.16
2019-03-05T14:11:23.100Z,9.15
2019-03-05T14:12:28.349Z,9.10
2019-03-05T14:13:33.886Z,8.84
2019-03-05T14:14:39.767Z,8.70
2019-03-05T14:15:45.616Z,8.71
2019-03-05T14:16:51.045Z,8.70
2019-03-05T14:17:56.735Z,8.48
2019-03-05T14:19:02.803Z,8.53
2019-03-05T14:20:10.998Z,8.56
2019-03-05T14:21:16.910Z,8.43
2019-03-05T14:22:22.626Z,8.54
2019-03-05T14:23:28.498Z,8.73
2019-03-05T14:24:34.458Z,8.83
2019-03-05T14:25:39.610Z,9.11
2019-03-05T14:26:45.677Z,9.17
2019-03-05T14:27:51.593Z,9.35
2019-03-05T14:28:57.085Z,9.25
2019-03-05T14:30:03.216Z,9.57
2019-03-05T14:31:08.488Z,9.61
2019-03-05T14:32:13.699Z,9.46
2019-03-05T14:33:19.595Z,9.72
2019-03-05T14:34:25.353Z,9.83
2019-03-05T14:35:30.928Z,9.93
2019-03-05T14:36:36.938Z,9.94
2019-03-05T14:37:42.475Z,9.95
2019-03-05T14:38:48.211Z,9.66
2019-03-05T14:39:54.277Z,9.78
2019-03-05T14:40:59.479Z,9.95
2019-03-05T14:42:04.403Z,9.90
2019-03-05T14:43:10.285Z,9.63
2019-03-05T14:44:15.861Z,9.53
2019-03-05T14:45:23.865Z,9.69
2019-03-05T14:46:29.574Z,9.87
2019-03-05T14:47:35.492Z,9.86
2019-03-05T14:48:40.975Z,10.03
2019-03-05T14:49:46.864Z,9.93
2019-03-05T14:50:52.811Z,9.57
2019-03-05T14:51:58.677Z,9.49
2019-03-05T14:53:03.886Z,9.67
2019-03-05T14:54:09.792Z,9.67
2019-03-05T14:55:15.472Z,9.78
2019-03-05T14:56:21.006Z,9.80
2019-03-05T14:57:26.873Z,9.69
2019-03-05T14:58:32.739Z,9.75
2019-03-05T14:59:38.592Z,9.59
2019-03-05T15:00:44.487Z,9.61
2019-03-05T15:01:50.033Z,9.61
2019-03-05T15:02:55.960Z,9.55
2019-03-05T15:04:01.921Z,9.49
2019-03-05T15:05:07.135Z,9.44
2019-03-05T15:06:13.220Z,9.41
2019-03-05T15:07:19.103Z,9.64
2019-03-05T15:08:25.137Z,9.63